AIRPORT_AIRPORT_METAR
METAR FOR LFST
ADDS - METARS form results

(0041 UTC 01 April 2020)
Data provider http://aviationweather.gov/metar/data/
 
METAR text: LFST 010030Z AUTO 01005KT CAVOK M00/M06 Q1023 NOSIG
Conditions at: LFST (STRASBOURG/ENTZH, FR) observed 0030 UTC 01 April 2020
Temperature: 0.0°C (32°F)
Dewpoint: -6.0°C (21°F) [RH = 64%]
Pressure (altimeter): 30.21 inches Hg (1023.0 mb)
Winds: from the N (10 degrees) at 6 MPH (5 knots; 2.6 m/s)
Visibility: 6 or more miles (10+ km)
Ceiling: ceiling and visibility are OK
Clouds: unknown
Weather: no significant weather observed at this time

METAR text: LFST 010000Z AUTO 01004KT CAVOK 00/M06 Q1024 NOSIG
Conditions at: LFST (STRASBOURG/ENTZH, FR) observed 0000 UTC 01 April 2020
Temperature: 0.0°C (32°F)
Dewpoint: -6.0°C (21°F) [RH = 64%]
Pressure (altimeter): 30.24 inches Hg (1024.0 mb)
Winds: from the N (10 degrees) at 5 MPH (4 knots; 2.1 m/s)
Visibility: 6 or more miles (10+ km)
Ceiling: ceiling and visibility are OK
Clouds: unknown
Weather: no significant weather observed at this time

Forecast for: LFST (STRASBOURG/ENTZH, FR)
Text: TAF LFST 312300Z 0100/0124 36005KT CAVOK
Forecast period: 0000 UTC 01 April 2020 to 0000 UTC 02 April 2020
Forecast type: FROM: standard forecast or significant change
Winds: from the N (360 degrees) at 6 MPH (5 knots; 2.6 m/s)
Visibility: 6 or more miles 10+ km)
Ceiling: unknown
Clouds: missing
Weather: NSW  (no significant weather)

 AIRPORT_AIRPORT_MAP

 AIRPORT_RUNWAY_INFO
AIRPORT_RUNWAY 05 AIRPORT_RUNWAY_LENGTH 7874 ft AIRPORT_RUNWAY_WIDTH 148 ft
AIRPORT_RUNWAY_ELEVATION 503 ft AIRPORT_RUNWAY_THRESHOLD 0 ft AIRPORT_RUNWAY_HEADING 49
AIRPORT_RUNWAY 23 AIRPORT_RUNWAY_LENGTH 7874 ft AIRPORT_RUNWAY_WIDTH 148 ft
AIRPORT_RUNWAY_ELEVATION 491 ft AIRPORT_RUNWAY_THRESHOLD 0 ft AIRPORT_RUNWAY_HEADING 229

 AIRPORT_AIRPORT_FREQUENCIES
AIRPORT_AIRPORT_NAVAIDS_TYPE APP AIRPORT_AIRPORT_NAVAIDS_NAME STRASBOURG AIRPORT_AIRPORT_NAVAIDS_FREQ 119.45 MHZ
AIRPORT_AIRPORT_NAVAIDS_TYPE ATIS AIRPORT_AIRPORT_NAVAIDS_NAME STRASBOURG AIRPORT_AIRPORT_NAVAIDS_FREQ 126.925 MHZ
AIRPORT_AIRPORT_NAVAIDS_TYPE GND AIRPORT_AIRPORT_NAVAIDS_NAME STRASBOURG AIRPORT_AIRPORT_NAVAIDS_FREQ 121.8 MHZ
AIRPORT_AIRPORT_NAVAIDS_TYPE TWR AIRPORT_AIRPORT_NAVAIDS_NAME STRASBOURG AIRPORT_AIRPORT_NAVAIDS_FREQ 126.875 MHZ

 AIRPORT_AIRPORT_NAVAIDS
AIRPORT_AIRPORT_NAVAIDS_TYPE VOR-DME AIRPORT_AIRPORT_NAVAIDS_NAME Saverne AIRPORT_AIRPORT_NAVAIDS_FREQ 110450 KHZ
AIRPORT_AIRPORT_NAVAIDS_TYPE VOR-DME AIRPORT_AIRPORT_NAVAIDS_NAME Strasbourg AIRPORT_AIRPORT_NAVAIDS_FREQ 115600 KHZ



Copyright © 2005-2019 - Virtuel Air Alsace - Tous droits réservés